Time;durP1;ratioP1;P1;durP2;ratioP2;P2;SDS_P1;SDS_P2;PMS_P1;PMS_P2;Temp;Humidity;BMP_temperature;BMP_pressure;BME280_temperature;BME280_humidity;BME280_pressure;Samples;Min_cycle;Max_cycle;Signal;HPM_P1;HPM_P2
2022/06/18 00:02:23;;;;;;;2.27;1.70;;;24.60;51.90;;;;;;5042436;28;20497;-84
2022/06/18 00:04:52;;;;;;;1.50;1.40;;;24.60;51.90;;;;;;5043558;28;21109;-85
2022/06/18 00:07:23;;;;;;;2.67;1.90;;;24.50;51.80;;;;;;5041594;28;20534;-83
2022/06/18 00:10:01;;;;;;;1.80;1.70;;;24.50;50.10;;;;;;5041977;28;21001;-83
2022/06/18 00:15:20;;;;;;;1.50;1.40;;;24.50;51.10;;;;;;5037236;28;21639;-82
2022/06/18 00:17:51;;;;;;;3.50;1.37;;;24.50;50.80;;;;;;5040132;28;20463;-84
2022/06/18 00:20:22;;;;;;;1.90;1.80;;;24.50;50.20;;;;;;5042923;28;20448;-84
2022/06/18 00:22:54;;;;;;;2.10;1.40;;;24.40;50.20;;;;;;5038525;28;20455;-84
2022/06/18 00:25:27;;;;;;;1.77;1.67;;;24.40;51.00;;;;;;5036208;28;20471;-83
2022/06/18 00:27:56;;;;;;;2.60;1.73;;;24.40;50.10;;;;;;5044053;28;20459;-83
2022/06/18 00:30:26;;;;;;;1.77;1.50;;;24.40;50.80;;;;;;5046645;28;20455;-83
2022/06/18 00:32:56;;;;;;;2.30;2.10;;;24.40;50.60;;;;;;5040126;28;20479;-83
2022/06/18 00:35:24;;;;;;;1.90;1.53;;;24.40;51.80;;;;;;5045334;28;21070;-83
2022/06/18 00:37:56;;;;;;;4.10;2.70;;;24.30;52.30;;;;;;5044775;28;20463;-83
2022/06/18 00:40:28;;;;;;;1.57;1.47;;;24.20;51.60;;;;;;5048976;28;20455;-83
2022/06/18 00:43:00;;;;;;;1.47;1.37;;;24.20;50.30;;;;;;5044623;28;20456;-83
2022/06/18 00:45:31;;;;;;;1.70;1.60;;;24.20;50.40;;;;;;5045508;28;21037;-83
2022/06/18 00:48:07;;;;;;;1.87;1.50;;;24.20;50.20;;;;;;5045457;28;20535;-81
2022/06/18 00:50:41;;;;;;;1.70;1.60;;;24.10;50.20;;;;;;5046569;28;20456;-83
2022/06/18 00:53:14;;;;;;;1.90;1.37;;;24.10;50.40;;;;;;5041540;28;20482;-83
2022/06/18 00:55:48;;;;;;;2.67;1.50;;;24.10;51.10;;;;;;5045169;28;20503;-83
2022/06/18 00:58:30;;;;;;;2.50;2.30;;;24.10;51.70;;;;;;5045599;28;20463;-83
2022/06/18 01:01:00;;;;;;;2.30;1.70;;;24.10;52.10;;;;;;5046592;28;20459;-84
2022/06/18 01:03:32;;;;;;;1.80;1.70;;;24.10;51.80;;;;;;5042310;28;20451;-83
2022/06/18 01:06:04;;;;;;;2.10;1.90;;;24.00;51.70;;;;;;5036176;28;20477;-85
2022/06/18 01:08:34;;;;;;;1.50;1.40;;;24.00;51.80;;;;;;5044159;28;20447;-86
2022/06/18 01:11:08;;;;;;;3.10;1.53;;;24.00;51.70;;;;;;5047050;28;20538;-86
2022/06/18 01:13:40;;;;;;;1.50;1.40;;;24.00;51.50;;;;;;5043477;28;21017;-85
2022/06/18 01:16:10;;;;;;;2.20;1.50;;;24.00;52.10;;;;;;5039674;28;20567;-86
2022/06/18 01:18:40;;;;;;;1.50;1.40;;;23.90;50.30;;;;;;5045287;28;20455;-86
2022/06/18 01:21:20;;;;;;;1.50;1.40;;;23.90;51.40;;;;;;5044801;28;20444;-86
2022/06/18 01:23:53;;;;;;;1.93;1.73;;;23.90;50.50;;;;;;5041829;28;21373;-84
2022/06/18 01:26:23;;;;;;;1.90;1.73;;;23.90;50.30;;;;;;5043636;28;20480;-84
2022/06/18 01:28:51;;;;;;;1.60;1.50;;;23.90;50.30;;;;;;5057915;28;20978;-83
2022/06/18 01:31:19;;;;;;;1.90;1.80;;;23.90;51.60;;;;;;5044704;28;21013;-84
2022/06/18 01:33:49;;;;;;;1.70;1.60;;;23.90;50.70;;;;;;5044950;28;20475;-83
2022/06/18 01:36:17;;;;;;;1.60;1.50;;;24.00;50.50;;;;;;5046838;28;20483;-83
2022/06/18 01:38:47;;;;;;;1.77;1.67;;;24.00;49.90;;;;;;5046300;28;20466;-84
2022/06/18 01:44:11;;;;;;;1.33;1.23;;;24.00;49.00;;;;;;5042521;28;20443;-83
2022/06/18 01:46:46;;;;;;;1.40;1.30;;;24.10;48.60;;;;;;5040156;28;20475;-84
2022/06/18 01:49:19;;;;;;;1.40;1.30;;;24.20;49.20;;;;;;5046555;28;20439;-84
2022/06/18 01:51:50;;;;;;;2.53;1.63;;;24.20;49.30;;;;;;5046953;28;20477;-83
2022/06/18 01:54:22;;;;;;;1.60;1.50;;;24.20;48.80;;;;;;5043896;28;20468;-84
2022/06/18 01:56:54;;;;;;;1.40;1.30;;;24.30;49.40;;;;;;5043841;28;21430;-82
2022/06/18 01:59:27;;;;;;;1.70;1.60;;;24.30;48.60;;;;;;5045556;28;20963;-83
2022/06/18 02:01:57;;;;;;;1.90;1.80;;;24.30;49.10;;;;;;5045973;28;20459;-82
2022/06/18 02:04:28;;;;;;;1.77;1.50;;;24.30;48.50;;;;;;5039210;28;20849;-84
2022/06/18 02:06:56;;;;;;;2.83;1.67;;;24.30;48.30;;;;;;5044622;28;20490;-82
2022/06/18 02:09:33;;;;;;;2.00;1.90;;;24.30;50.00;;;;;;5043425;28;20444;-84
2022/06/18 02:12:05;;;;;;;1.60;1.50;;;24.40;47.70;;;;;;5043358;28;20450;-84
2022/06/18 02:14:36;;;;;;;1.63;1.53;;;24.30;49.10;;;;;;5046471;28;20475;-84
2022/06/18 02:17:08;;;;;;;1.60;1.40;;;24.40;48.80;;;;;;5044455;28;20487;-83
2022/06/18 02:19:39;;;;;;;1.53;1.43;;;24.40;47.90;;;;;;5043940;28;20455;-84
2022/06/18 02:22:09;;;;;;;1.90;1.80;;;24.40;49.50;;;;;;5044636;28;20444;-83
2022/06/18 02:24:38;;;;;;;1.60;1.50;;;24.40;49.80;;;;;;5043938;28;20448;-84
2022/06/18 02:27:06;;;;;;;1.87;1.40;;;24.40;52.20;;;;;;5037516;28;20464;-83
2022/06/18 02:29:36;;;;;;;1.40;1.30;;;24.30;53.20;;;;;;5040119;28;20501;-84
2022/06/18 02:32:14;;;;;;;2.67;1.83;;;24.30;52.90;;;;;;5044234;28;20463;-84
2022/06/18 02:34:43;;;;;;;6.00;2.03;;;24.30;50.10;;;;;;5043837;28;20537;-84
2022/06/18 02:37:22;;;;;;;1.50;1.40;;;24.20;51.60;;;;;;5041602;28;21710;-83
2022/06/18 02:39:59;;;;;;;2.07;1.40;;;24.20;51.40;;;;;;5040056;28;20460;-85
2022/06/18 02:42:31;;;;;;;1.60;1.50;;;24.10;50.40;;;;;;5044974;28;20582;-84
2022/06/18 02:45:05;;;;;;;2.67;1.50;;;24.10;51.20;;;;;;5040731;28;20455;-85
2022/06/18 02:47:34;;;;;;;3.40;1.60;;;24.00;51.50;;;;;;5051002;28;20464;-84
2022/06/18 02:50:06;;;;;;;1.70;1.60;;;24.00;50.30;;;;;;5040167;28;20467;-84
2022/06/18 02:52:37;;;;;;;3.67;2.00;;;23.90;50.50;;;;;;5044741;28;20467;-84
2022/06/18 02:55:13;;;;;;;1.80;1.70;;;23.80;50.60;;;;;;5042024;28;20477;-83
2022/06/18 02:57:41;;;;;;;2.53;1.87;;;23.80;48.90;;;;;;5036590;28;20446;-83
2022/06/18 03:00:13;;;;;;;1.80;1.70;;;23.70;50.90;;;;;;5040771;28;20440;-83
2022/06/18 03:02:42;;;;;;;2.73;1.60;;;23.70;48.00;;;;;;5044857;28;20534;-83
2022/06/18 03:05:19;;;;;;;1.50;1.40;;;23.60;49.70;;;;;;5036406;28;20463;-82
2022/06/18 03:07:47;;;;;;;2.13;1.60;;;23.60;48.70;;;;;;5043888;28;20512;-83
2022/06/18 03:13:02;;;;;;;2.20;1.43;;;23.50;49.10;;;;;;5044916;28;20470;-83
2022/06/18 03:15:31;;;;;;;1.93;1.80;;;23.40;50.40;;;;;;5037828;28;20490;-83
2022/06/18 03:18:00;;;;;;;3.33;1.80;;;23.40;49.70;;;;;;5041619;28;20447;-83
2022/06/18 03:20:39;;;;;;;1.87;1.77;;;23.40;49.70;;;;;;5040479;28;20463;-83
2022/06/18 03:23:07;;;;;;;2.40;1.80;;;23.40;48.70;;;;;;5057922;28;20470;-83
2022/06/18 03:25:35;;;;;;;1.70;1.60;;;23.40;51.70;;;;;;5046600;28;20741;-83
2022/06/18 03:28:04;;;;;;;1.90;1.70;;;23.40;50.80;;;;;;5047500;28;20456;-84
2022/06/18 03:30:33;;;;;;;2.17;1.70;;;23.40;50.40;;;;;;5040936;28;20463;-83
2022/06/18 03:33:01;;;;;;;2.30;1.87;;;23.30;52.00;;;;;;5045385;28;20461;-83
2022/06/18 03:35:30;;;;;;;1.90;1.80;;;23.30;50.40;;;;;;5037639;28;20509;-84
2022/06/18 03:37:58;;;;;;;1.87;1.60;;;23.30;51.10;;;;;;5043561;28;20483;-84
2022/06/18 03:40:27;;;;;;;1.87;1.60;;;23.30;50.60;;;;;;5042076;28;20463;-83
2022/06/18 03:42:55;;;;;;;1.90;1.80;;;23.20;50.50;;;;;;5043967;28;20450;-83
2022/06/18 03:45:23;;;;;;;2.40;2.20;;;23.20;51.50;;;;;;5050788;28;20478;-81
2022/06/18 03:47:53;;;;;;;2.57;1.50;;;23.20;50.20;;;;;;5039734;28;20808;-82
2022/06/18 03:50:21;;;;;;;1.60;1.50;;;23.20;65.90;;;;;;5042855;28;20451;-84
2022/06/18 03:52:50;;;;;;;2.70;1.50;;;23.20;48.50;;;;;;5042017;28;20465;-84
2022/06/18 03:55:18;;;;;;;1.90;1.80;;;23.20;51.70;;;;;;5039989;28;20549;-84
2022/06/18 03:57:46;;;;;;;1.83;1.70;;;23.20;49.50;;;;;;5038644;28;20470;-83
2022/06/18 04:00:19;;;;;;;1.90;1.60;;;23.10;49.30;;;;;;5042259;28;20456;-83
2022/06/18 04:02:47;;;;;;;1.70;1.60;;;23.10;47.00;;;;;;5042361;28;20443;-83
2022/06/18 04:05:17;;;;;;;1.70;1.60;;;23.10;49.40;;;;;;5044731;28;20458;-81
2022/06/18 04:07:45;;;;;;;1.60;1.50;;;23.10;48.40;;;;;;5044978;28;20564;-81
2022/06/18 04:10:19;;;;;;;2.13;1.93;;;23.00;48.80;;;;;;5042927;28;20447;-80
2022/06/18 04:12:47;;;;;;;2.13;2.00;;;23.00;47.50;;;;;;5049689;28;20478;-82
2022/06/18 04:15:22;;;;;;;2.23;1.80;;;23.00;48.90;;;;;;5044280;28;20915;-82
2022/06/18 04:17:51;;;;;;;2.17;1.97;;;22.90;49.80;;;;;;5045098;28;20458;-82
2022/06/18 04:20:23;;;;;;;2.20;1.93;;;22.90;52.10;;;;;;5043239;28;20459;-82
2022/06/18 04:22:52;;;;;;;2.07;1.80;;;22.90;48.10;;;;;;5048966;28;20461;-83
2022/06/18 04:25:20;;;;;;;1.60;1.50;;;22.90;48.00;;;;;;5047057;28;20558;-82
2022/06/18 04:27:49;;;;;;;2.53;2.00;;;22.90;48.60;;;;;;5043697;28;20466;-82
2022/06/18 04:30:19;;;;;;;1.73;1.63;;;22.90;47.20;;;;;;5059893;28;20923;-82
2022/06/18 04:32:47;;;;;;;1.63;1.53;;;22.90;46.80;;;;;;5041402;28;20461;-82
2022/06/18 04:35:15;;;;;;;1.63;1.53;;;22.90;50.80;;;;;;5047357;28;20492;-82
2022/06/18 04:37:45;;;;;;;1.90;1.80;;;23.00;51.00;;;;;;5049346;28;20457;-82
2022/06/18 04:40:15;;;;;;;2.23;2.03;;;23.00;50.50;;;;;;5045269;28;20463;-82
2022/06/18 04:43:05;;;;;;;1.97;1.87;;;23.00;49.70;;;;;;5048883;28;20458;-83
2022/06/18 04:45:34;;;;;;;2.60;2.40;;;23.00;49.60;;;;;;5042128;28;20471;-83
2022/06/18 04:48:04;;;;;;;2.43;2.23;;;23.10;50.00;;;;;;5040205;28;20455;-83
2022/06/18 04:50:34;;;;;;;4.13;2.13;;;23.00;48.70;;;;;;5045221;28;20469;-83
2022/06/18 04:53:04;;;;;;;3.20;2.13;;;23.10;48.40;;;;;;5050217;28;20473;-83
2022/06/18 04:55:33;;;;;;;2.43;2.23;;;23.10;49.90;;;;;;5050571;28;20485;-84
2022/06/18 04:58:01;;;;;;;2.40;2.30;;;23.10;51.50;;;;;;5042805;28;20474;-84
2022/06/18 05:00:29;;;;;;;3.10;2.63;;;23.20;53.80;;;;;;5042430;28;20911;-84
2022/06/18 05:02:58;;;;;;;2.43;2.23;;;23.20;53.10;;;;;;5046743;28;20462;-84
2022/06/18 05:05:27;;;;;;;2.67;2.03;;;23.30;55.00;;;;;;5041206;28;20475;-84
2022/06/18 05:07:55;;;;;;;2.03;1.93;;;23.30;53.90;;;;;;5046747;28;21142;-83
2022/06/18 05:10:25;;;;;;;2.70;2.50;;;23.30;54.50;;;;;;5046005;28;20456;-83
2022/06/18 05:12:53;;;;;;;3.20;2.23;;;23.40;54.90;;;;;;5048402;28;20456;-82
2022/06/18 05:15:21;;;;;;;3.20;1.97;;;23.40;54.20;;;;;;5040494;28;20493;-82
2022/06/18 05:17:51;;;;;;;2.40;2.20;;;23.40;55.80;;;;;;5044492;28;20467;-83
2022/06/18 05:20:22;;;;;;;2.23;2.13;;;23.50;54.40;;;;;;5048725;28;20530;-83
2022/06/18 05:22:51;;;;;;;3.43;2.00;;;23.50;55.20;;;;;;5047691;28;20562;-83
2022/06/18 05:25:19;;;;;;;2.10;1.90;;;23.50;55.70;;;;;;5043122;28;21132;-84
2022/06/18 05:27:49;;;;;;;2.00;1.90;;;23.50;53.80;;;;;;5044116;28;20467;-82
2022/06/18 05:30:21;;;;;;;2.77;2.57;;;23.60;56.10;;;;;;5042660;28;20990;-82
2022/06/18 05:32:50;;;;;;;2.33;2.17;;;23.60;55.40;;;;;;5048048;28;20466;-83
2022/06/18 05:35:18;;;;;;;2.57;2.37;;;23.60;57.10;;;;;;5047380;28;20506;-82
2022/06/18 05:37:50;;;;;;;1.97;1.87;;;23.60;55.60;;;;;;5044360;28;20462;-81
2022/06/18 05:40:20;;;;;;;2.70;2.30;;;23.20;56.70;;;;;;5047234;28;20462;-82
2022/06/18 05:42:49;;;;;;;2.63;2.40;;;23.70;57.40;;;;;;5048413;28;20440;-82
2022/06/18 05:45:18;;;;;;;2.27;2.10;;;23.80;60.70;;;;;;5047923;28;20969;-82
2022/06/18 05:47:46;;;;;;;2.47;2.27;;;23.90;60.90;;;;;;5045494;28;20462;-83
2022/06/18 05:50:18;;;;;;;2.43;2.23;;;23.90;60.70;;;;;;5047542;28;20439;-84
2022/06/18 05:52:46;;;;;;;2.60;2.40;;;24.00;61.30;;;;;;5048243;28;20475;-83
2022/06/18 05:55:15;;;;;;;2.30;2.17;;;24.00;65.80;;;;;;5042354;28;20486;-84
2022/06/18 05:57:47;;;;;;;2.40;2.30;;;24.00;63.80;;;;;;5044239;28;20460;-83
2022/06/18 06:00:20;;;;;;;3.83;2.13;;;24.10;64.30;;;;;;5050926;28;20450;-82
2022/06/18 06:02:48;;;;;;;1.97;1.87;;;24.10;63.50;;;;;;5051875;28;20454;-75
2022/06/18 06:05:16;;;;;;;3.67;2.80;;;24.10;65.70;;;;;;5044089;28;20540;-75
2022/06/18 06:07:45;;;;;;;2.20;2.00;;;24.20;67.00;;;;;;5049959;28;21099;-76
2022/06/18 06:13:09;;;;;;;3.27;2.10;;;24.20;67.40;;;;;;5042176;28;20455;-76
2022/06/18 06:15:40;;;;;;;2.30;2.20;;;24.30;68.90;;;;;;5040214;28;21021;-75
2022/06/18 06:18:10;;;;;;;2.10;2.00;;;24.30;68.50;;;;;;5040399;28;20443;-75
2022/06/18 06:20:40;;;;;;;2.60;2.40;;;24.30;67.20;;;;;;5041967;28;20463;-76
2022/06/18 06:23:10;;;;;;;2.60;2.40;;;24.30;66.80;;;;;;5044048;28;20447;-76
2022/06/18 06:25:39;;;;;;;2.63;2.43;;;24.30;66.20;;;;;;5039870;28;20486;-76
2022/06/18 06:28:09;;;;;;;3.30;3.00;;;24.30;68.30;;;;;;5044758;28;20451;-76
2022/06/18 06:30:39;;;;;;;2.90;2.30;;;24.30;69.10;;;;;;5042320;28;20447;-76
2022/06/18 06:33:07;;;;;;;2.00;1.87;;;24.40;67.80;;;;;;5042504;28;20556;-76
2022/06/18 06:35:35;;;;;;;2.70;2.50;;;24.40;71.50;;;;;;5041333;28;20483;-76
2022/06/18 06:38:04;;;;;;;2.40;2.20;;;24.50;71.20;;;;;;5040992;28;20466;-75
2022/06/18 06:40:34;;;;;;;2.30;2.10;;;24.60;73.00;;;;;;5041095;28;20525;-76
2022/06/18 06:43:02;;;;;;;2.93;2.27;;;24.60;71.80;;;;;;5045938;28;20744;-76
2022/06/18 06:45:33;;;;;;;2.50;2.23;;;24.70;71.50;;;;;;5041451;28;20472;-77
2022/06/18 06:48:03;;;;;;;3.50;3.30;;;24.70;73.90;;;;;;5038386;28;20459;-76
2022/06/18 06:50:32;;;;;;;2.60;2.40;;;24.70;75.20;;;;;;5044152;28;20559;-77
2022/06/18 06:53:00;;;;;;;2.70;2.50;;;24.80;77.10;;;;;;5044369;28;20463;-78
2022/06/18 06:58:18;;;;;;;2.37;2.17;;;24.90;77.30;;;;;;5040059;28;20480;-77
2022/06/18 07:00:48;;;;;;;2.27;2.07;;;25.00;92.50;;;;;;5052790;28;20954;-76
2022/06/18 07:03:24;;;;;;;2.17;1.97;;;25.00;78.80;;;;;;5043088;28;20460;-75
2022/06/18 07:05:52;;;;;;;2.83;2.10;;;25.10;79.60;;;;;;5039019;28;20514;-76
2022/06/18 07:08:21;;;;;;;2.67;2.47;;;25.10;78.20;;;;;;5040790;28;20462;-76
2022/06/18 07:10:50;;;;;;;7.50;2.10;;;25.20;76.80;;;;;;5038428;28;20452;-76
2022/06/18 07:13:19;;;;;;;2.10;2.00;;;25.20;77.40;;;;;;5046687;28;21015;-74
2022/06/18 07:15:49;;;;;;;2.00;1.60;;;25.20;79.70;;;;;;5035053;28;20483;-78
2022/06/18 07:18:22;;;;;;;2.17;1.97;;;25.30;79.00;;;;;;5033912;28;20543;-76
2022/06/18 07:20:50;;;;;;;2.10;2.00;;;25.40;80.60;;;;;;5041340;28;20455;-76
2022/06/18 07:23:19;;;;;;;2.03;1.83;;;25.40;80.30;;;;;;5043349;28;20451;-76
2022/06/18 07:25:47;;;;;;;2.10;2.00;;;25.40;79.20;;;;;;5041462;28;20482;-79
2022/06/18 07:28:15;;;;;;;2.47;2.27;;;25.50;82.60;;;;;;5039888;28;20822;-76
2022/06/18 07:30:46;;;;;;;3.50;1.93;;;25.40;80.80;;;;;;5044398;28;20470;-76
2022/06/18 07:33:17;;;;;;;3.00;2.80;;;25.50;82.90;;;;;;5038782;28;20470;-77
2022/06/18 07:35:46;;;;;;;3.13;1.80;;;25.50;80.80;;;;;;5035563;28;20986;-76
2022/06/18 07:38:15;;;;;;;1.83;1.67;;;25.50;81.30;;;;;;5030186;28;20466;-75
2022/06/18 07:40:47;;;;;;;1.83;1.70;;;25.60;79.40;;;;;;5038956;28;20478;-76
2022/06/18 07:43:20;;;;;;;2.00;1.80;;;25.60;79.00;;;;;;5038399;28;21037;-79
2022/06/18 07:45:48;;;;;;;2.03;1.93;;;25.70;80.40;;;;;;5045788;28;20463;-79
2022/06/18 07:48:17;;;;;;;2.00;1.80;;;25.70;82.60;;;;;;5039899;28;20503;-79
2022/06/18 07:50:47;;;;;;;2.27;2.00;;;25.70;82.50;;;;;;5040277;28;20452;-82
2022/06/18 07:53:17;;;;;;;1.63;1.53;;;25.80;82.90;;;;;;5046075;28;20494;-81
2022/06/18 07:55:46;;;;;;;1.63;1.53;;;25.90;82.60;;;;;;5058476;28;20861;-81
2022/06/18 07:58:14;;;;;;;1.83;1.50;;;25.90;84.00;;;;;;5031741;28;20503;-80
2022/06/18 08:00:43;;;;;;;1.73;1.63;;;25.90;76.80;;;;;;5045530;28;20557;-84
2022/06/18 08:03:15;;;;;;;1.70;1.57;;;26.00;79.50;;;;;;5048113;28;20452;-84
2022/06/18 08:05:44;;;;;;;1.80;1.50;;;26.00;77.70;;;;;;5049154;28;20487;-83
2022/06/18 08:08:14;;;;;;;3.87;1.87;;;26.10;76.90;;;;;;5048430;28;20460;-84
2022/06/18 08:11:03;;;;;;;5.53;1.50;;;26.10;76.20;;;;;;5046822;28;20459;-81
2022/06/18 08:13:31;;;;;;;3.57;1.50;;;26.20;77.50;;;;;;5042039;28;20458;-81
2022/06/18 08:15:59;;;;;;;1.63;1.53;;;26.30;78.60;;;;;;5036848;28;20467;-81
2022/06/18 08:18:27;;;;;;;2.40;1.57;;;26.30;82.20;;;;;;5034863;28;20464;-81
2022/06/18 08:21:01;;;;;;;1.53;1.43;;;26.30;77.50;;;;;;5042616;28;20447;-80
2022/06/18 08:23:31;;;;;;;1.60;1.50;;;26.30;79.10;;;;;;5044893;28;20460;-81
2022/06/18 08:25:59;;;;;;;1.60;1.50;;;26.40;80.70;;;;;;5037731;28;20482;-82
2022/06/18 08:28:27;;;;;;;1.50;1.40;;;26.40;82.10;;;;;;5045626;28;20453;-81
2022/06/18 08:30:56;;;;;;;1.43;1.33;;;26.50;80.50;;;;;;5042986;28;20455;-81
2022/06/18 08:33:24;;;;;;;1.60;1.50;;;26.50;82.20;;;;;;5041686;28;20982;-80
2022/06/18 08:35:52;;;;;;;1.47;1.30;;;26.50;82.50;;;;;;5041237;28;20502;-79
2022/06/18 08:38:20;;;;;;;1.73;1.63;;;26.60;83.20;;;;;;5035552;28;20857;-79
2022/06/18 08:41:04;;;;;;;2.33;1.40;;;26.60;84.50;;;;;;5040938;28;20455;-79
2022/06/18 08:43:50;;;;;;;1.43;1.30;;;26.60;84.30;;;;;;5042247;28;20458;-80
2022/06/18 08:46:26;;;;;;;1.73;1.63;;;26.70;86.30;;;;;;5045549;28;21045;-84
2022/06/18 08:49:28;;;;;;;1.97;1.87;;;26.70;83.70;;;;;;5052340;28;20491;-85
2022/06/18 08:52:12;;;;;;;1.63;1.33;;;26.70;93.70;;;;;;5062987;28;20443;-84
2022/06/18 08:54:50;;;;;;;1.67;1.50;;;26.80;81.10;;;;;;5050900;28;20451;-83
2022/06/18 08:57:26;;;;;;;1.57;1.47;;;26.90;84.00;;;;;;5054996;28;20505;-83
2022/06/18 09:00:05;;;;;;;2.10;1.40;;;27.00;86.50;;;;;;5051079;28;20462;-85
2022/06/18 09:02:40;;;;;;;1.20;1.10;;;27.10;83.10;;;;;;5047015;28;21085;-84
2022/06/18 09:05:39;;;;;;;1.30;1.07;;;27.10;80.70;;;;;;5049203;28;20471;-84
2022/06/18 09:08:31;;;;;;;1.60;1.50;;;27.20;80.10;;;;;;5050800;28;20466;-85
2022/06/18 09:11:13;;;;;;;1.50;1.40;;;27.20;77.90;;;;;;5053218;28;20886;-83
2022/06/18 09:13:48;;;;;;;1.40;1.30;;;27.30;80.80;;;;;;5047588;28;20479;-84
2022/06/18 09:16:21;;;;;;;1.43;1.33;;;27.30;81.00;;;;;;5050037;28;20467;-84
2022/06/18 09:18:53;;;;;;;1.97;1.87;;;27.30;78.90;;;;;;5049239;28;20732;-85
2022/06/18 09:21:28;;;;;;;1.90;1.80;;;27.30;82.10;;;;;;5053229;28;20551;-84
2022/06/18 09:24:00;;;;;;;2.50;2.30;;;27.40;82.40;;;;;;5051578;28;20462;-85
2022/06/18 09:26:35;;;;;;;1.47;1.37;;;27.50;86.90;;;;;;5053321;28;20476;-86
2022/06/18 09:29:17;;;;;;;1.73;1.57;;;27.60;82.50;;;;;;5057202;28;20466;-88
2022/06/18 09:31:50;;;;;;;1.67;1.57;;;27.60;83.60;;;;;;5055959;28;20470;-85
2022/06/18 09:34:26;;;;;;;1.40;1.30;;;27.60;81.40;;;;;;5048064;28;20884;-85
2022/06/18 09:36:57;;;;;;;1.53;1.43;;;27.60;83.10;;;;;;5047954;28;20497;-85
2022/06/18 09:39:30;;;;;;;1.40;1.30;;;27.70;87.60;;;;;;5048000;28;20529;-85
2022/06/18 09:42:04;;;;;;;1.77;1.50;;;27.70;82.80;;;;;;5050868;28;20460;-82
2022/06/18 09:44:39;;;;;;;1.30;1.20;;;27.80;85.30;;;;;;5047787;28;20455;-84
2022/06/18 09:47:12;;;;;;;1.23;1.13;;;27.80;86.20;;;;;;5053398;28;20474;-86
2022/06/18 09:49:41;;;;;;;1.10;1.00;;;27.90;81.40;;;;;;5049193;28;20468;-85
2022/06/18 09:52:17;;;;;;;1.10;1.03;;;27.90;76.70;;;;;;5041075;28;20455;-84
2022/06/18 09:54:51;;;;;;;1.20;1.10;;;28.00;76.40;;;;;;5046564;28;20452;-86
2022/06/18 09:57:24;;;;;;;1.10;1.00;;;28.00;76.70;;;;;;5049098;28;20503;-85
2022/06/18 10:00:01;;;;;;;2.57;1.40;;;28.00;78.50;;;;;;5042702;28;20468;-84
2022/06/18 10:02:32;;;;;;;1.10;1.00;;;28.10;79.60;;;;;;5058192;28;20454;-82
2022/06/18 10:07:53;;;;;;;1.00;1.00;;;28.10;77.80;;;;;;5056521;28;20478;-83
2022/06/18 10:10:25;;;;;;;1.53;1.10;;;28.10;76.40;;;;;;5050724;28;20448;-86
2022/06/18 10:12:56;;;;;;;1.13;1.00;;;28.20;74.30;;;;;;5051375;28;20537;-84
2022/06/18 10:15:28;;;;;;;0.90;0.90;;;28.20;69.90;;;;;;5055083;28;20480;-84
2022/06/18 10:18:14;;;;;;;0.90;0.90;;;28.20;70.30;;;;;;5052247;28;20495;-84
2022/06/18 10:20:47;;;;;;;1.17;0.97;;;28.40;72.90;;;;;;5059017;28;20963;-84
2022/06/18 10:23:29;;;;;;;1.33;1.23;;;28.40;74.10;;;;;;5051659;28;20475;-84
2022/06/18 10:26:08;;;;;;;0.80;0.80;;;28.50;70.30;;;;;;5054098;28;20468;-84
2022/06/18 10:28:42;;;;;;;1.00;1.00;;;28.50;77.30;;;;;;5043768;28;20868;-84
2022/06/18 10:31:18;;;;;;;1.93;1.10;;;28.50;78.20;;;;;;5049318;28;20456;-85
2022/06/18 10:33:54;;;;;;;2.40;1.13;;;28.60;76.90;;;;;;5040020;28;20510;-84
2022/06/18 10:36:29;;;;;;;1.23;1.13;;;28.60;79.00;;;;;;5050474;28;20482;-84
2022/06/18 10:39:11;;;;;;;3.50;2.37;;;28.70;82.30;;;;;;5049495;28;20473;-84
2022/06/18 10:41:48;;;;;;;1.23;1.10;;;28.70;77.00;;;;;;5051553;28;20452;-85
2022/06/18 10:44:32;;;;;;;1.30;1.00;;;28.70;78.10;;;;;;5042514;28;20435;-84
2022/06/18 10:47:06;;;;;;;1.40;1.30;;;28.80;77.80;;;;;;5051800;28;21276;-85
2022/06/18 10:49:35;;;;;;;1.40;1.00;;;28.80;78.80;;;;;;5052163;28;20570;-85
2022/06/18 10:52:05;;;;;;;0.93;0.93;;;28.80;78.60;;;;;;5050474;28;20456;-84
2022/06/18 10:54:35;;;;;;;1.07;1.00;;;28.80;80.10;;;;;;5052824;28;20831;-84
2022/06/18 10:57:06;;;;;;;5.10;2.70;;;28.90;79.80;;;;;;5049079;28;20484;-84
2022/06/18 10:59:36;;;;;;;3.13;1.23;;;28.90;83.60;;;;;;5045572;28;20475;-85
2022/06/18 11:02:18;;;;;;;1.23;1.13;;;28.90;81.80;;;;;;5045297;28;20444;-84
2022/06/18 11:04:55;;;;;;;1.20;1.10;;;29.00;80.60;;;;;;5042006;28;20484;-85
2022/06/18 11:07:26;;;;;;;1.20;1.10;;;29.10;85.80;;;;;;5046682;28;20450;-83
2022/06/18 11:10:00;;;;;;;1.23;1.13;;;29.20;84.70;;;;;;5043614;28;20459;-84
2022/06/18 11:12:32;;;;;;;1.30;1.20;;;29.20;85.40;;;;;;5052017;28;20443;-85
2022/06/18 11:15:00;;;;;;;2.77;1.30;;;29.30;83.50;;;;;;5047448;28;20467;-84
2022/06/18 11:17:32;;;;;;;1.40;1.30;;;29.40;87.00;;;;;;5052540;28;20467;-84
2022/06/18 11:20:17;;;;;;;2.23;1.30;;;29.50;86.60;;;;;;5047524;28;21018;-84
2022/06/18 11:22:52;;;;;;;2.50;1.27;;;29.50;84.50;;;;;;5045235;28;20463;-84
2022/06/18 11:25:27;;;;;;;2.33;1.20;;;29.50;84.70;;;;;;5044340;28;20932;-85
2022/06/18 11:27:58;;;;;;;1.10;1.07;;;29.50;85.50;;;;;;5047850;28;20450;-84
2022/06/18 11:30:31;;;;;;;1.57;1.13;;;29.50;86.30;;;;;;5052084;28;20447;-84
2022/06/18 11:33:03;;;;;;;2.37;1.37;;;29.60;85.60;;;;;;5056939;28;20455;-85
2022/06/18 11:35:33;;;;;;;2.70;1.50;;;29.60;86.40;;;;;;5047052;28;20562;-85
2022/06/18 11:38:04;;;;;;;2.33;1.40;;;29.60;86.90;;;;;;5058646;28;20455;-85
2022/06/18 11:40:32;;;;;;;2.60;1.43;;;29.50;96.30;;;;;;5049419;28;20452;-85
2022/06/18 11:43:05;;;;;;;10.43;4.60;;;29.60;87.70;;;;;;5046955;28;20459;-83
2022/06/18 11:45:44;;;;;;;15.10;5.53;;;29.60;93.00;;;;;;5043384;28;21007;-85
2022/06/18 11:48:22;;;;;;;2.93;1.60;;;29.40;94.50;;;;;;5045052;28;20817;-84
2022/06/18 11:50:57;;;;;;;3.70;1.87;;;29.30;86.80;;;;;;5040513;28;20462;-82
2022/06/18 11:53:32;;;;;;;7.33;3.73;;;29.30;88.40;;;;;;5040350;28;20459;-84
2022/06/18 11:56:08;;;;;;;4.30;1.80;;;29.30;90.90;;;;;;5043945;28;20488;-82
2022/06/18 11:58:43;;;;;;;6.13;1.97;;;29.40;89.80;;;;;;5046868;28;20477;-84
2022/06/18 12:01:20;;;;;;;6.37;2.20;;;29.50;90.10;;;;;;5047305;28;20509;-83
2022/06/18 12:03:53;;;;;;;3.70;1.93;;;29.50;91.40;;;;;;5046618;28;20642;-82
2022/06/18 12:06:32;;;;;;;2.83;2.47;;;29.50;92.20;;;;;;5040572;28;20471;-84
2022/06/18 12:09:20;;;;;;;2.37;2.00;;;29.60;92.30;;;;;;5042833;28;20896;-83
2022/06/18 12:11:59;;;;;;;5.97;2.20;;;29.60;94.00;;;;;;5046972;28;20966;-80
2022/06/18 12:14:34;;;;;;;3.53;2.50;;;29.60;93.00;;;;;;5038888;28;20510;-85
2022/06/18 12:17:08;;;;;;;6.30;2.33;;;29.70;92.80;;;;;;5040135;28;20484;-85
2022/06/18 12:19:44;;;;;;;6.83;2.30;;;29.70;93.10;;;;;;5045944;28;21093;-87
2022/06/18 12:22:22;;;;;;;2.90;2.30;;;29.80;93.90;;;;;;5053983;28;20451;-84
2022/06/18 12:25:00;;;;;;;3.70;2.30;;;29.80;93.30;;;;;;5046903;28;20874;-85
2022/06/18 12:27:30;;;;;;;5.03;1.60;;;29.90;94.10;;;;;;5049182;28;20458;-85
2022/06/18 12:30:05;;;;;;;4.70;1.93;;;29.90;94.50;;;;;;5053283;28;20471;-83
2022/06/18 12:32:46;;;;;;;5.10;2.13;;;30.00;92.50;;;;;;5045901;28;20456;-82
2022/06/18 12:35:25;;;;;;;4.63;2.23;;;30.00;92.70;;;;;;5048711;28;20560;-83
2022/06/18 12:38:03;;;;;;;5.50;2.20;;;30.10;92.60;;;;;;5042853;28;20542;-84
2022/06/18 12:40:40;;;;;;;5.83;2.43;;;30.20;92.80;;;;;;5044543;28;20574;-83
2022/06/18 12:43:15;;;;;;;7.77;2.37;;;30.20;92.70;;;;;;5044196;28;21058;-83
2022/06/18 12:45:55;;;;;;;4.03;2.23;;;30.20;92.90;;;;;;5038976;28;20542;-86
2022/06/18 12:48:34;;;;;;;7.47;1.90;;;30.20;92.60;;;;;;5044536;28;20820;-84
2022/06/18 12:51:08;;;;;;;4.50;1.70;;;30.30;94.10;;;;;;5048165;28;20451;-83
2022/06/18 12:53:58;;;;;;;3.80;2.47;;;30.30;95.40;;;;;;5064045;28;20463;-83
2022/06/18 12:56:34;;;;;;;8.00;1.90;;;30.30;94.90;;;;;;5042664;28;20479;-84
2022/06/18 12:59:11;;;;;;;3.00;2.37;;;30.40;94.70;;;;;;5044072;28;20470;-84
2022/06/18 13:01:51;;;;;;;5.90;2.03;;;30.30;94.20;;;;;;5051948;28;20459;-83
2022/06/18 13:04:35;;;;;;;3.73;2.03;;;30.40;94.60;;;;;;5045780;28;20466;-83
2022/06/18 13:07:12;;;;;;;3.00;2.20;;;30.40;94.70;;;;;;5045008;28;20564;-83
2022/06/18 13:09:50;;;;;;;7.57;2.40;;;30.40;93.90;;;;;;5048068;28;20447;-84
2022/06/18 13:12:35;;;;;;;3.70;2.00;;;30.40;94.60;;;;;;5053138;28;20459;-83
2022/06/18 13:15:27;;;;;;;4.63;2.40;;;30.40;94.70;;;;;;5048655;28;20884;-83
2022/06/18 13:18:02;;;;;;;4.70;2.07;;;30.50;94.70;;;;;;5052728;28;20459;-82
2022/06/18 13:20:36;;;;;;;5.63;2.13;;;30.60;95.40;;;;;;5051889;28;20474;-83
2022/06/18 13:28:42;;;;;;;8.07;2.50;;;30.70;96.30;;;;;;5046959;28;20467;-85
2022/06/18 13:31:20;;;;;;;7.07;2.67;;;30.70;95.70;;;;;;5051557;28;20209;-84
2022/06/18 13:33:56;;;;;;;5.40;1.93;;;30.70;96.30;;;;;;5046748;28;20788;-84
2022/06/18 13:36:38;;;;;;;5.70;2.50;;;30.70;96.00;;;;;;5047181;28;20510;-84
2022/06/18 13:39:38;;;;;;;4.57;1.80;;;30.80;95.80;;;;;;5045435;28;20459;-84